Time;durP1;ratioP1;P1;durP2;ratioP2;P2;SDS_P1;SDS_P2;PMS_P1;PMS_P2;Temp;Humidity;BMP_temperature;BMP_pressure;BME280_temperature;BME280_humidity;BME280_pressure;Samples;Min_cycle;Max_cycle;Signal;HPM_P1;HPM_P2
2022/08/24 00:01:33;;;;;;;8.40;5.60;;;;;;;19.64;95.04;100278.98;130282;1267;107903;-76
2022/08/24 00:04:39;;;;;;;9.50;6.60;;;;;;;19.68;95.13;100272.40;130096;1268;109067;-76
2022/08/24 00:07:46;;;;;;;8.50;5.40;;;;;;;19.63;95.24;100278.12;130120;1268;108784;-75
2022/08/24 00:10:51;;;;;;;8.20;5.90;;;;;;;19.59;95.21;100279.16;130249;1268;108734;-76
2022/08/24 00:13:57;;;;;;;9.30;5.40;;;;;;;19.59;95.38;100280.33;130275;1268;108664;-75
2022/08/24 00:17:04;;;;;;;8.20;5.50;;;;;;;19.63;95.44;100283.40;130291;1267;108691;-75
2022/08/24 00:20:12;;;;;;;5.80;5.00;;;;;;;19.73;95.36;100280.48;130351;1268;108748;-76
2022/08/24 00:23:17;;;;;;;6.70;4.60;;;;;;;19.88;95.18;100289.02;130363;1268;108807;-76
2022/08/24 00:26:23;;;;;;;7.00;5.10;;;;;;;20.00;94.90;100291.57;130264;1268;107743;-76
2022/08/24 00:29:28;;;;;;;6.20;5.60;;;;;;;20.09;94.68;100295.25;130287;1268;108940;-75
2022/08/24 00:32:34;;;;;;;9.00;5.90;;;;;;;20.11;94.40;100295.07;130231;1267;108975;-75
2022/08/24 00:35:39;;;;;;;6.90;6.00;;;;;;;20.05;94.41;100294.02;130200;1268;108648;-74
2022/08/24 00:38:45;;;;;;;7.00;5.20;;;;;;;20.00;94.60;100293.52;130216;1268;108759;-75
2022/08/24 00:41:52;;;;;;;7.30;5.00;;;;;;;20.03;94.63;100297.90;130207;1268;108705;-76
2022/08/24 00:44:58;;;;;;;6.80;4.70;;;;;;;20.07;94.50;100295.13;130231;1268;109018;-76
2022/08/24 00:48:06;;;;;;;6.30;5.40;;;;;;;20.10;94.40;100290.58;130321;1268;108882;-76
2022/08/24 00:51:18;;;;;;;6.60;5.60;;;;;;;20.12;94.42;100281.81;130334;1268;108684;-75
2022/08/24 00:54:26;;;;;;;9.30;5.70;;;;;;;20.13;94.42;100281.02;130245;1268;108786;-75
2022/08/24 00:57:40;;;;;;;6.20;5.30;;;;;;;20.15;94.35;100279.70;130202;1268;108142;-76
2022/08/24 01:00:50;;;;;;;7.90;4.60;;;;;;;20.16;94.20;100283.59;130226;1268;108849;-76
2022/08/24 01:03:57;;;;;;;5.10;4.50;;;;;;;20.20;94.30;100281.23;130244;1268;108744;-76
2022/08/24 01:07:03;;;;;;;7.10;5.50;;;;;;;20.27;94.25;100282.80;130296;1268;108837;-76
2022/08/24 01:10:12;;;;;;;5.60;4.80;;;;;;;20.31;94.30;100279.06;130297;1268;109708;-75
2022/08/24 01:13:19;;;;;;;5.80;5.10;;;;;;;20.47;94.51;100277.64;130256;1265;108691;-75
2022/08/24 01:19:54;;;;;;;6.30;4.40;;;;;;;20.64;94.33;100265.11;130225;1268;108695;-74
2022/08/24 01:23:08;;;;;;;5.60;4.10;;;;;;;20.88;94.06;100262.03;130199;1268;108783;-75
2022/08/24 01:26:17;;;;;;;5.40;4.90;;;;;;;21.05;93.91;100262.27;130209;1267;108841;-74
2022/08/24 01:29:27;;;;;;;3.70;3.40;;;;;;;21.17;93.22;100263.29;130183;1268;108810;-74
2022/08/24 01:32:33;;;;;;;7.00;4.60;;;;;;;21.30;93.36;100259.31;130353;1268;108873;-74
2022/08/24 01:35:40;;;;;;;4.50;3.90;;;;;;;21.36;92.55;100260.73;130227;1268;108595;-75
2022/08/24 01:38:47;;;;;;;4.10;3.70;;;;;;;21.38;93.02;100265.27;130219;1268;108698;-75
2022/08/24 01:41:53;;;;;;;5.00;4.30;;;;;;;21.54;93.11;100264.58;130136;1268;108514;-75
2022/08/24 01:44:58;;;;;;;5.30;3.50;;;;;;;21.61;92.19;100269.61;130206;1268;108883;-75
2022/08/24 01:48:04;;;;;;;5.30;4.20;;;;;;;21.61;92.46;100272.70;130253;1268;109857;-76
2022/08/24 01:51:10;;;;;;;5.10;4.60;;;;;;;21.67;92.09;100274.92;130241;1268;108782;-76
2022/08/24 01:54:16;;;;;;;4.50;3.80;;;;;;;21.67;92.16;100271.42;130196;1268;108803;-75
2022/08/24 01:57:25;;;;;;;4.40;3.90;;;;;;;21.80;92.36;100275.13;130127;1268;108881;-75
2022/08/24 02:00:32;;;;;;;3.80;3.40;;;;;;;21.92;92.17;100280.33;130302;1268;108695;-76
2022/08/24 02:03:37;;;;;;;5.80;4.30;;;;;;;21.94;91.24;100283.80;130303;1268;108682;-78
2022/08/24 02:06:44;;;;;;;5.70;4.50;;;;;;;21.83;90.93;100281.93;130221;1271;108767;-78
2022/08/24 02:09:49;;;;;;;4.70;3.90;;;;;;;21.81;91.49;100286.14;130114;1271;107611;-79
2022/08/24 02:12:58;;;;;;;3.90;3.40;;;;;;;21.94;91.84;100291.67;130244;1271;108825;-80
2022/08/24 02:16:05;;;;;;;3.50;3.10;;;;;;;22.07;91.47;100294.31;130213;1271;108869;-78
2022/08/24 02:19:11;;;;;;;7.20;4.70;;;;;;;22.17;91.17;100289.75;130213;1271;108869;-78
2022/08/24 02:22:16;;;;;;;4.90;4.10;;;;;;;22.19;89.89;100290.69;130223;1270;107646;-77
2022/08/24 02:25:23;;;;;;;4.40;3.30;;;;;;;22.13;90.69;100292.45;130129;1271;108745;-78
2022/08/24 02:28:29;;;;;;;5.30;3.70;;;;;;;22.18;90.57;100305.51;130153;1271;109007;-78
2022/08/24 02:31:36;;;;;;;6.20;4.60;;;;;;;22.16;90.16;100307.34;130223;1271;108861;-79
2022/08/24 02:34:42;;;;;;;5.90;5.30;;;;;;;22.01;89.49;100308.11;130257;1270;108664;-78
2022/08/24 02:37:48;;;;;;;4.20;3.60;;;;;;;21.89;90.05;100308.20;130218;1271;108828;-79
2022/08/24 02:40:56;;;;;;;4.40;3.80;;;;;;;21.96;90.69;100311.08;130258;1271;108670;-78
2022/08/24 02:44:02;;;;;;;4.70;3.50;;;;;;;22.10;90.62;100312.17;130209;1270;108611;-78
2022/08/24 02:47:09;;;;;;;5.70;4.70;;;;;;;22.19;90.28;100314.73;130115;1270;108700;-79
2022/08/24 02:50:17;;;;;;;7.50;5.80;;;;;;;22.19;89.02;100314.83;130239;1270;108927;-79
2022/08/24 02:53:23;;;;;;;6.90;5.40;;;;;;;22.04;88.99;100314.79;130222;1271;107672;-80
2022/08/24 02:56:29;;;;;;;8.10;6.30;;;;;;;21.96;89.40;100314.17;130224;1271;108724;-78
2022/08/24 02:59:35;;;;;;;8.30;5.40;;;;;;;21.94;89.57;100312.56;130544;1270;109135;-80
2022/08/24 03:02:42;;;;;;;7.40;6.60;;;;;;;21.99;89.52;100312.89;130352;1271;108696;-79
2022/08/24 03:05:47;;;;;;;8.80;6.10;;;;;;;21.83;89.17;100311.89;130395;1270;108879;-79
2022/08/24 03:08:53;;;;;;;9.20;5.50;;;;;;;21.72;89.49;100310.51;130299;1271;108926;-74
2022/08/24 03:11:58;;;;;;;9.50;7.10;;;;;;;21.73;90.01;100309.51;130383;1270;107711;-77
2022/08/24 03:15:06;;;;;;;8.90;7.50;;;;;;;21.77;90.04;100308.83;130361;1271;108797;-77
2022/08/24 03:18:11;;;;;;;5.30;4.80;;;;;;;21.82;90.10;100311.91;130361;1270;107967;-78
2022/08/24 03:21:18;;;;;;;6.20;3.90;;;;;;;21.90;90.02;100314.66;130224;1271;109000;-78
2022/08/24 03:24:23;;;;;;;5.80;4.10;;;;;;;22.00;90.14;100315.59;130132;1270;108819;-77
2022/08/24 03:27:29;;;;;;;7.50;5.00;;;;;;;22.10;89.56;100315.14;130201;1270;108863;-78
2022/08/24 03:30:35;;;;;;;9.20;6.30;;;;;;;22.08;89.02;100313.48;130198;1271;109146;-77
2022/08/24 03:33:40;;;;;;;6.10;5.10;;;;;;;22.06;89.04;100311.52;130216;1271;108487;-77
2022/08/24 03:36:46;;;;;;;5.60;4.40;;;;;;;22.09;89.23;100318.50;130184;1269;107619;-77
2022/08/24 03:39:53;;;;;;;5.80;5.10;;;;;;;22.12;89.41;100325.23;130244;1269;108855;-77
2022/08/24 03:42:59;;;;;;;6.60;5.20;;;;;;;22.15;88.51;100328.09;130149;1270;108744;-76
2022/08/24 03:46:08;;;;;;;5.30;4.80;;;;;;;22.15;89.23;100333.27;130175;1270;108651;-77
2022/08/24 03:49:14;;;;;;;5.70;4.50;;;;;;;22.27;89.20;100333.30;130219;1271;109017;-77
2022/08/24 03:52:20;;;;;;;6.20;4.80;;;;;;;22.35;89.00;100335.48;130143;1270;108689;-77
2022/08/24 03:55:27;;;;;;;9.10;6.70;;;;;;;22.42;88.45;100336.80;130206;1271;108792;-77
2022/08/24 03:58:32;;;;;;;8.90;6.40;;;;;;;22.38;88.03;100337.36;130308;1270;107698;-77
2022/08/24 04:01:39;;;;;;;6.50;5.50;;;;;;;22.38;88.35;100337.08;130257;1268;110342;-77
2022/08/24 04:04:46;;;;;;;6.80;5.80;;;;;;;22.44;88.56;100343.67;130247;1268;107946;-77
2022/08/24 04:07:53;;;;;;;4.90;4.40;;;;;;;22.50;88.27;100355.36;130362;1268;107733;-77
2022/08/24 04:10:59;;;;;;;9.20;4.50;;;;;;;22.57;88.26;100364.14;130253;1267;108905;-78
2022/08/24 04:14:04;;;;;;;9.20;5.90;;;;;;;22.65;88.14;100358.27;130313;1268;108645;-76
2022/08/24 04:17:11;;;;;;;8.60;6.90;;;;;;;22.66;87.22;100349.98;130264;1268;108698;-77
2022/08/24 04:20:20;;;;;;;7.30;5.50;;;;;;;22.54;87.19;100348.52;130255;1268;108756;-78
2022/08/24 04:23:25;;;;;;;6.00;4.90;;;;;;;22.58;87.79;100347.38;130200;1268;108664;-78
2022/08/24 04:26:32;;;;;;;5.30;4.80;;;;;;;22.67;87.66;100342.77;130155;1268;109210;-77
2022/08/24 04:29:38;;;;;;;7.40;6.10;;;;;;;22.76;87.45;100349.76;130326;1268;108588;-77
2022/08/24 04:32:44;;;;;;;6.70;5.60;;;;;;;22.77;86.53;100350.55;130251;1268;108838;-77
2022/08/24 04:35:50;;;;;;;6.50;5.80;;;;;;;22.67;86.35;100352.53;130035;1268;108736;-76
2022/08/24 04:38:56;;;;;;;8.20;5.60;;;;;;;22.62;87.04;100355.24;130142;1268;108820;-77
2022/08/24 04:42:21;;;;;;;7.60;6.00;;;;;;;22.74;86.90;100352.64;130315;1268;108697;-77
2022/08/24 04:45:28;;;;;;;7.80;7.00;;;;;;;22.80;86.56;100355.96;130289;1268;108708;-77
2022/08/24 04:48:34;;;;;;;6.90;5.20;;;;;;;22.86;86.58;100360.35;130309;1268;108756;-76
2022/08/24 04:51:40;;;;;;;6.90;4.90;;;;;;;22.94;86.39;100363.19;130314;1268;108785;-76
2022/08/24 04:54:46;;;;;;;7.30;6.40;;;;;;;23.04;86.32;100366.73;130197;1268;107685;-76
2022/08/24 04:58:00;;;;;;;6.10;5.50;;;;;;;23.15;86.01;100370.70;130400;1267;109010;-76
2022/08/24 05:01:13;;;;;;;12.10;9.50;;;;;;;23.21;86.03;100367.64;130228;1268;108946;-75
2022/08/24 05:04:18;;;;;;;7.70;6.50;;;;;;;23.14;85.28;100371.35;130225;1270;108676;-76
2022/08/24 05:07:25;;;;;;;7.50;6.10;;;;;;;22.99;85.08;100372.46;130299;1271;108684;-76
2022/08/24 05:10:31;;;;;;;9.70;8.90;;;;;;;22.92;85.39;100374.98;130240;1271;108915;-77
2022/08/24 05:13:37;;;;;;;7.10;5.60;;;;;;;22.82;85.17;100376.63;130197;1270;108418;-76
2022/08/24 05:16:42;;;;;;;6.70;6.00;;;;;;;22.78;85.59;100381.30;129192;1271;1438913;-77
2022/08/24 05:19:49;;;;;;;6.20;5.20;;;;;;;22.79;85.53;100382.33;130219;1271;109026;-77
2022/08/24 05:22:55;;;;;;;10.70;9.50;;;;;;;22.84;85.30;100381.09;130146;1271;108888;-78
2022/08/24 05:26:08;;;;;;;11.50;10.30;;;;;;;22.66;85.29;100377.77;130247;1270;108707;-78
2022/08/24 05:29:14;;;;;;;12.60;11.20;;;;;;;22.53;85.55;100379.26;130213;1271;108853;-77
2022/08/24 05:32:23;;;;;;;11.90;10.40;;;;;;;22.39;85.57;100378.05;130186;1271;108862;-77
2022/08/24 05:35:29;;;;;;;13.00;10.80;;;;;;;22.29;85.92;100379.47;130201;1271;109101;-78
2022/08/24 05:38:35;;;;;;;14.50;10.50;;;;;;;22.22;85.75;100379.13;130205;1271;108644;-77
2022/08/24 05:41:42;;;;;;;14.00;11.40;;;;;;;21.97;85.90;100373.67;130098;1271;108826;-76
2022/08/24 05:44:52;;;;;;;12.60;11.30;;;;;;;21.84;86.54;100375.35;130215;1271;108007;-75
2022/08/24 05:48:00;;;;;;;13.40;11.90;;;;;;;21.76;86.50;100376.32;130189;1271;108935;-76
2022/08/24 05:51:44;;;;;;;13.90;11.90;;;;;;;21.56;86.75;100378.06;130306;1271;109273;-76
2022/08/24 05:54:54;;;;;;;16.00;12.00;;;;;;;21.26;87.34;100372.34;130283;1270;108697;-76
2022/08/24 05:58:00;;;;;;;15.20;13.30;;;;;;;20.99;88.05;100368.84;130085;1271;108807;-76
2022/08/24 06:01:09;;;;;;;16.00;14.30;;;;;;;20.79;88.92;100362.94;130171;1271;107858;-76
2022/08/24 06:04:16;;;;;;;16.80;13.10;;;;;;;20.75;89.82;100362.21;130195;1270;107755;-76
2022/08/24 06:07:21;;;;;;;13.80;12.30;;;;;;;20.74;89.55;100367.55;130104;1271;108710;-76
2022/08/24 06:10:32;;;;;;;14.70;11.90;;;;;;;20.79;89.28;100372.79;130142;1271;108826;-76
2022/08/24 06:13:38;;;;;;;14.70;13.00;;;;;;;20.92;89.51;100375.29;130052;1270;108717;-75
2022/08/24 06:16:46;;;;;;;15.60;10.90;;;;;;;20.98;89.60;100377.67;130083;1270;108701;-76
2022/08/24 06:19:51;;;;;;;11.80;10.10;;;;;;;21.08;89.53;100375.05;130227;1271;108967;-76
2022/08/24 06:22:57;;;;;;;13.30;10.70;;;;;;;21.21;89.46;100377.05;130093;1271;108707;-76
2022/08/24 06:29:27;;;;;;;14.00;12.40;;;;;;;21.29;89.31;100375.06;130038;1270;108844;-75
2022/08/24 06:32:36;;;;;;;13.00;11.60;;;;;;;21.16;89.88;100374.63;130071;1270;109035;-76
2022/08/24 06:35:42;;;;;;;11.90;10.50;;;;;;;21.11;90.51;100377.70;130108;1270;108770;-76
2022/08/24 06:38:47;;;;;;;12.40;10.70;;;;;;;21.25;90.38;100378.95;130016;1271;108930;-75
2022/08/24 06:41:54;;;;;;;12.70;10.90;;;;;;;21.46;89.90;100379.55;130141;1271;108742;-76
2022/08/24 06:45:10;;;;;;;16.00;11.50;;;;;;;21.48;89.83;100381.00;130113;1271;108741;-78
2022/08/24 06:48:16;;;;;;;14.40;12.20;;;;;;;21.48;90.00;100382.65;130113;1271;108718;-78
2022/08/24 06:51:24;;;;;;;15.40;11.10;;;;;;;21.50;90.30;100378.56;130214;1270;108997;-78
2022/08/24 06:54:30;;;;;;;15.00;10.70;;;;;;;21.49;90.69;100376.77;130171;1270;108670;-75
2022/08/24 06:57:35;;;;;;;11.90;10.60;;;;;;;21.53;90.80;100380.34;130015;1271;107955;-76
2022/08/24 07:00:42;;;;;;;10.40;9.20;;;;;;;21.72;90.55;100393.91;130026;1271;108679;-77
2022/08/24 07:03:47;;;;;;;8.90;7.70;;;;;;;22.06;90.06;100398.76;130123;1271;108930;-75
2022/08/24 07:07:00;;;;;;;12.70;9.40;;;;;;;22.39;89.55;100396.11;130163;1271;108661;-78
2022/08/24 07:10:08;;;;;;;11.50;9.90;;;;;;;22.42;89.03;100398.09;130050;1270;107537;-78
2022/08/24 07:13:14;;;;;;;11.90;10.70;;;;;;;22.43;89.11;100396.98;130001;1271;108706;-77
2022/08/24 07:16:21;;;;;;;9.20;8.30;;;;;;;22.54;89.34;100406.05;130153;1271;107651;-78
2022/08/24 07:19:29;;;;;;;9.60;8.60;;;;;;;22.82;89.14;100414.60;130155;1271;108996;-78
2022/08/24 07:22:35;;;;;;;10.30;8.30;;;;;;;23.04;88.95;100418.45;130002;1271;108731;-77
2022/08/24 07:25:42;;;;;;;11.10;9.90;;;;;;;23.31;88.57;100415.05;130043;1271;109007;-77
2022/08/24 07:28:47;;;;;;;11.40;8.60;;;;;;;23.39;87.29;100421.25;130017;1271;108978;-77
2022/08/24 07:31:52;;;;;;;10.10;8.40;;;;;;;23.42;88.00;100429.21;130032;1271;109182;-77
2022/08/24 07:35:06;;;;;;;12.00;8.50;;;;;;;23.58;87.66;100438.21;130093;1270;108986;-77
2022/08/24 07:38:13;;;;;;;8.60;7.80;;;;;;;23.71;87.40;100436.30;130214;1271;108790;-77
2022/08/24 07:41:19;;;;;;;10.90;8.40;;;;;;;23.84;86.65;100436.33;130048;1270;109224;-77
2022/08/24 07:44:25;;;;;;;11.00;8.90;;;;;;;23.56;85.91;100436.77;130084;1271;108692;-78
2022/08/24 07:47:31;;;;;;;12.20;9.50;;;;;;;23.18;85.94;100443.14;130135;1271;108876;-78
2022/08/24 07:50:37;;;;;;;10.90;8.90;;;;;;;22.93;86.71;100445.72;130140;1271;108801;-78
2022/08/24 07:53:44;;;;;;;11.00;9.30;;;;;;;22.92;87.01;100453.56;130167;1270;108649;-78
2022/08/24 07:56:50;;;;;;;8.80;7.90;;;;;;;22.86;86.74;100453.02;130196;1271;108714;-77
2022/08/24 07:59:55;;;;;;;11.10;9.00;;;;;;;22.78;86.76;100455.67;130209;1271;107490;-78
2022/08/24 08:03:03;;;;;;;10.40;8.90;;;;;;;22.79;86.90;100459.59;130209;1271;109051;-78
2022/08/24 08:06:12;;;;;;;10.50;9.40;;;;;;;22.90;86.78;100454.73;130210;1271;107766;-78
2022/08/24 08:09:17;;;;;;;13.20;10.00;;;;;;;22.91;86.69;100453.33;130135;1270;109660;-78
2022/08/24 08:12:23;;;;;;;10.50;9.40;;;;;;;22.96;86.49;100453.35;130186;1271;108999;-77
2022/08/24 08:15:33;;;;;;;12.10;7.80;;;;;;;23.00;86.61;100457.98;130101;1271;109095;-77
2022/08/24 08:18:44;;;;;;;10.40;8.10;;;;;;;23.20;87.17;100458.95;130165;1269;108959;-76
2022/08/24 08:25:37;;;;;;;11.20;9.10;;;;;;;23.34;85.78;100469.38;130138;1269;108606;-77
2022/08/24 08:28:43;;;;;;;13.00;9.40;;;;;;;23.22;85.29;100475.80;130201;1271;108667;-78
2022/08/24 08:31:49;;;;;;;12.90;9.10;;;;;;;23.21;85.77;100477.40;130061;1269;108786;-77
2022/08/24 08:34:54;;;;;;;11.30;8.60;;;;;;;23.29;85.82;100474.91;130203;1271;109037;-77
2022/08/24 08:38:00;;;;;;;10.90;8.40;;;;;;;23.31;85.66;100471.85;130154;1269;108766;-76
2022/08/24 08:41:39;;;;;;;11.90;9.50;;;;;;;23.44;85.89;100471.66;130125;1270;108984;-77
2022/08/24 08:45:11;;;;;;;12.00;9.20;;;;;;;23.62;85.91;100466.59;130160;1271;109002;-76
2022/08/24 08:48:36;;;;;;;13.80;10.10;;;;;;;23.86;84.97;100468.95;130178;1271;109209;-76
2022/08/24 08:52:15;;;;;;;10.50;8.50;;;;;;;23.96;84.70;100472.48;130174;1269;108714;-76
2022/08/24 08:55:32;;;;;;;12.60;9.30;;;;;;;24.06;84.91;100479.34;130081;1271;109115;-76
2022/08/24 08:58:53;;;;;;;11.40;9.20;;;;;;;24.25;84.41;100478.20;130199;1271;108888;-76
2022/08/24 09:02:16;;;;;;;12.10;9.40;;;;;;;24.32;84.66;100475.02;130198;1271;107735;-76
2022/08/24 09:06:09;;;;;;;8.10;7.30;;;;;;;24.60;84.20;100478.39;130221;1271;108856;-76
2022/08/24 09:09:42;;;;;;;14.20;9.80;;;;;;;25.03;83.33;100484.45;130199;1271;108727;-76
2022/08/24 09:13:04;;;;;;;12.00;9.50;;;;;;;25.04;81.63;100479.60;130228;1271;109400;-76
2022/08/24 09:16:26;;;;;;;11.30;8.90;;;;;;;24.81;81.77;100478.45;130029;1271;109154;-76
2022/08/24 09:19:49;;;;;;;10.90;9.70;;;;;;;24.69;81.95;100475.09;130137;1269;108763;-76
2022/08/24 09:23:11;;;;;;;11.40;7.80;;;;;;;24.57;82.69;100471.66;130132;1271;108753;-76
2022/08/24 09:26:25;;;;;;;13.00;8.40;;;;;;;24.84;83.06;100470.98;129981;1270;108735;-76
2022/08/24 09:29:47;;;;;;;10.50;8.40;;;;;;;25.07;82.89;100476.88;130264;1271;109747;-76
2022/08/24 09:33:06;;;;;;;14.10;8.90;;;;;;;25.29;82.42;100475.23;130095;1270;108735;-76
2022/08/24 09:36:18;;;;;;;13.00;9.10;;;;;;;25.41;81.87;100476.98;130098;1270;109048;-76
2022/08/24 09:39:40;;;;;;;11.70;8.90;;;;;;;25.45;81.32;100473.89;130023;1270;108535;-76
2022/08/24 09:43:30;;;;;;;13.60;9.90;;;;;;;25.59;81.00;100472.91;129975;1270;108593;-77
2022/08/24 09:47:03;;;;;;;12.30;10.30;;;;;;;25.48;81.14;100473.00;130012;1270;107477;-72
2022/08/24 09:50:40;;;;;;;13.70;9.70;;;;;;;25.44;81.12;100468.73;130024;1270;107566;-73
2022/08/24 09:54:18;;;;;;;15.20;8.70;;;;;;;25.38;80.67;100476.66;129975;1270;108716;-73
2022/08/24 09:57:40;;;;;;;13.90;10.50;;;;;;;25.41;79.82;100476.45;129866;1270;108971;-73
2022/08/24 10:00:52;;;;;;;14.50;9.40;;;;;;;25.23;80.04;100476.81;130147;1270;108807;-76
2022/08/24 10:04:10;;;;;;;10.20;8.00;;;;;;;25.21;80.98;100473.27;130043;1270;107673;-75
2022/08/24 10:07:24;;;;;;;15.50;9.70;;;;;;;25.33;80.40;100476.75;130211;1270;108631;-73
2022/08/24 10:10:39;;;;;;;15.10;9.10;;;;;;;25.16;80.21;100469.83;130297;1270;109007;-74
2022/08/24 10:13:55;;;;;;;15.80;10.00;;;;;;;25.17;80.53;100470.45;129935;1270;108815;-74
2022/08/24 10:17:09;;;;;;;11.90;8.90;;;;;;;25.24;80.71;100467.05;130042;1270;107661;-73
2022/08/24 10:20:23;;;;;;;14.50;9.60;;;;;;;25.40;80.08;100469.27;129983;1270;108636;-75
2022/08/24 10:23:46;;;;;;;13.30;9.40;;;;;;;25.42;79.98;100471.48;130078;1270;108806;-74
2022/08/24 10:27:13;;;;;;;16.70;9.70;;;;;;;25.52;79.22;100471.77;130149;1270;108812;-73
2022/08/24 10:30:48;;;;;;;14.90;10.20;;;;;;;25.64;79.83;100470.42;130014;1270;107465;-73
2022/08/24 10:34:17;;;;;;;12.10;9.30;;;;;;;25.71;78.72;100472.20;130061;1270;108796;-73
2022/08/24 10:37:50;;;;;;;16.90;10.00;;;;;;;25.71;78.97;100468.48;130067;1270;108678;-73
2022/08/24 10:41:16;;;;;;;13.40;8.90;;;;;;;25.75;79.12;100469.26;129966;1270;108486;-73
2022/08/24 10:44:47;;;;;;;12.90;8.90;;;;;;;25.74;79.37;100468.52;129998;1270;108955;-74
2022/08/24 10:48:25;;;;;;;9.90;8.40;;;;;;;25.88;79.58;100465.37;130122;1270;110380;-77
2022/08/24 10:51:43;;;;;;;16.20;9.90;;;;;;;26.11;79.21;100467.32;130139;1270;108638;-76
2022/08/24 10:54:49;;;;;;;12.50;9.70;;;;;;;26.14;79.23;100466.15;130249;1270;109042;-75
2022/08/24 10:58:19;;;;;;;15.10;9.30;;;;;;;26.20;78.76;100468.88;130073;1270;108835;-75
2022/08/24 11:01:29;;;;;;;13.40;8.60;;;;;;;26.22;78.83;100470.59;130163;1270;108766;-75
2022/08/24 11:04:35;;;;;;;11.60;8.40;;;;;;;26.36;78.87;100464.38;130148;1270;106390;-74
2022/08/24 11:07:57;;;;;;;17.30;10.20;;;;;;;26.56;77.23;100464.48;130194;1270;108744;-75
2022/08/24 11:11:09;;;;;;;16.50;9.40;;;;;;;26.40;76.58;100465.41;130198;1270;108788;-75
2022/08/24 11:14:29;;;;;;;16.40;10.20;;;;;;;26.30;77.98;100464.13;130194;1270;108877;-75
2022/08/24 11:17:34;;;;;;;13.50;8.70;;;;;;;26.33;77.95;100469.16;130261;1270;106883;-75
2022/08/24 11:20:45;;;;;;;9.30;8.00;;;;;;;26.32;77.95;100465.63;130221;1270;108852;-75
2022/08/24 11:23:51;;;;;;;22.40;8.70;;;;;;;26.23;77.58;100466.61;130204;1270;108507;-74
2022/08/24 11:27:01;;;;;;;12.60;8.80;;;;;;;26.27;78.28;100465.69;130205;1270;108644;-75
2022/08/24 11:30:14;;;;;;;13.40;9.30;;;;;;;26.33;77.79;100465.27;130152;1270;108988;-75
2022/08/24 11:33:30;;;;;;;14.30;9.50;;;;;;;26.35;77.26;100465.84;130212;1270;108953;-75
2022/08/24 11:36:38;;;;;;;13.10;9.50;;;;;;;26.34;77.25;100469.66;130209;1270;108719;-75
2022/08/24 11:39:43;;;;;;;14.70;9.50;;;;;;;26.26;77.28;100472.08;130357;1269;108740;-74
2022/08/24 11:43:15;;;;;;;17.40;8.60;;;;;;;26.26;77.71;100470.60;130296;1270;108663;-75
2022/08/24 11:46:29;;;;;;;14.30;9.20;;;;;;;26.34;77.72;100468.40;130230;1269;108550;-75
2022/08/24 11:49:52;;;;;;;14.60;8.60;;;;;;;26.42;75.99;100474.31;130176;1270;108667;-75
2022/08/24 11:53:08;;;;;;;13.20;8.10;;;;;;;26.66;77.07;100465.23;130169;1270;108862;-75
2022/08/24 11:56:25;;;;;;;16.90;8.60;;;;;;;26.97;76.20;100465.77;130069;1270;108759;-75
2022/08/24 11:59:39;;;;;;;13.70;8.70;;;;;;;27.14;76.34;100465.61;130079;1270;108827;-74
2022/08/24 12:02:57;;;;;;;14.60;8.60;;;;;;;27.23;75.43;100464.55;130069;1268;108745;-74
2022/08/24 12:06:13;;;;;;;18.60;8.40;;;;;;;27.11;75.15;100458.19;130263;1269;108398;-74
2022/08/24 12:09:28;;;;;;;15.50;7.70;;;;;;;27.00;75.94;100461.63;130058;1270;108870;-73
2022/08/24 12:12:44;;;;;;;13.30;7.10;;;;;;;26.83;76.36;100463.41;129985;1270;108726;-73
2022/08/24 12:15:56;;;;;;;14.50;8.60;;;;;;;26.72;75.88;100465.86;130059;1270;109099;-74
2022/08/24 12:19:06;;;;;;;14.90;7.60;;;;;;;26.50;75.55;100470.59;130260;1270;108725;-74
2022/08/24 12:22:13;;;;;;;10.70;7.10;;;;;;;26.27;75.98;100466.39;130182;1271;109018;-74
2022/08/24 12:28:47;;;;;;;15.00;8.00;;;;;;;26.18;76.52;100465.17;130282;1269;108734;-73
2022/08/24 12:31:58;;;;;;;17.40;7.90;;;;;;;26.27;76.32;100458.41;130244;1271;108737;-73
2022/08/24 12:35:07;;;;;;;14.50;7.20;;;;;;;26.41;75.97;100457.55;130210;1270;108733;-74
2022/08/24 12:38:19;;;;;;;16.70;7.30;;;;;;;26.54;75.68;100460.90;130213;1269;109792;-75
2022/08/24 12:41:32;;;;;;;17.40;7.50;;;;;;;26.62;75.12;100454.41;130165;1269;108702;-77
2022/08/24 12:44:45;;;;;;;14.60;7.20;;;;;;;26.67;74.85;100455.29;130202;1271;108728;-74
2022/08/24 12:47:58;;;;;;;15.50;6.50;;;;;;;26.73;74.71;100443.52;130131;1270;107482;-74
2022/08/24 12:51:18;;;;;;;17.90;7.20;;;;;;;26.83;74.47;100448.69;130175;1270;108134;-75
2022/08/24 12:54:46;;;;;;;20.30;6.90;;;;;;;26.93;73.93;100455.30;130388;1270;107664;-75
2022/08/24 12:58:03;;;;;;;16.80;7.00;;;;;;;26.91;73.14;100450.30;130238;1270;107590;-75
2022/08/24 13:01:11;;;;;;;14.70;7.10;;;;;;;26.91;73.71;100448.45;130108;1270;108475;-75
2022/08/24 13:04:33;;;;;;;22.40;8.30;;;;;;;26.95;74.15;100449.58;130092;1270;108970;-75
2022/08/24 13:07:44;;;;;;;20.10;6.40;;;;;;;26.94;73.04;100449.41;130274;1270;108675;-75
2022/08/24 13:11:05;;;;;;;20.70;7.00;;;;;;;26.97;73.49;100449.06;130218;1270;108734;-75
2022/08/24 13:14:22;;;;;;;16.90;6.10;;;;;;;27.02;73.58;100448.23;130146;1270;108713;-75
2022/08/24 13:17:41;;;;;;;17.20;6.60;;;;;;;27.12;73.73;100450.91;130161;1269;108627;-75
2022/08/24 13:20:56;;;;;;;19.80;6.60;;;;;;;27.21;73.58;100451.16;130112;1270;108716;-75
2022/08/24 13:24:52;;;;;;;21.20;7.10;;;;;;;27.19;72.76;100454.82;130239;1270;108852;-77
2022/08/24 13:28:08;;;;;;;23.60;7.70;;;;;;;27.03;72.93;100451.09;129963;1271;108719;-76
2022/08/24 13:31:31;;;;;;;18.20;6.90;;;;;;;26.91;72.41;100448.06;130262;1270;108633;-76
2022/08/24 13:34:44;;;;;;;21.30;6.20;;;;;;;26.87;72.96;100451.08;130197;1271;108963;-76
2022/08/24 13:38:35;;;;;;;25.70;7.20;;;;;;;26.91;72.63;100447.58;130177;1270;108824;-76
2022/08/24 13:42:03;;;;;;;26.20;6.60;;;;;;;26.91;72.65;100447.83;130231;1270;108632;-76
2022/08/24 13:45:23;;;;;;;24.30;6.50;;;;;;;26.91;72.56;100448.73;130218;1270;108864;-76
2022/08/24 13:48:45;;;;;;;27.50;7.20;;;;;;;26.91;72.29;100446.86;130211;1270;108755;-77
2022/08/24 13:52:03;;;;;;;20.10;6.90;;;;;;;26.96;72.22;100450.09;130214;1270;108823;-76
2022/08/24 13:55:32;;;;;;;25.70;7.00;;;;;;;26.98;72.51;100447.98;130191;1270;108949;-76
2022/08/24 13:58:44;;;;;;;20.30;6.20;;;;;;;27.01;72.42;100444.67;130207;1270;108668;-81
2022/08/24 14:02:07;;;;;;;22.40;6.10;;;;;;;27.04;72.37;100445.08;130234;1270;107681;-84
2022/08/24 14:05:25;;;;;;;25.20;6.70;;;;;;;27.07;72.39;100436.66;130268;1271;108965;-73
2022/08/24 14:08:44;;;;;;;19.20;6.20;;;;;;;27.09;72.08;100432.69;130367;1271;108844;-74
2022/08/24 14:12:13;;;;;;;25.20;6.60;;;;;;;27.07;71.95;100425.77;130240;1271;108685;-76
2022/08/24 14:15:47;;;;;;;19.50;7.20;;;;;;;27.03;71.61;100426.05;130082;1270;107693;-75
2022/08/24 14:19:07;;;;;;;21.50;6.10;;;;;;;26.95;71.30;100424.44;130325;1271;108710;-74
2022/08/24 14:22:28;;;;;;;26.60;6.90;;;;;;;26.94;71.99;100427.02;130214;1269;109054;-75
2022/08/24 14:25:37;;;;;;;27.10;7.40;;;;;;;26.95;71.59;100430.86;130241;1270;108903;-76
2022/08/24 14:28:43;;;;;;;23.00;6.40;;;;;;;26.94;71.11;100432.70;130167;1270;108837;-76
2022/08/24 14:32:34;;;;;;;21.80;6.10;;;;;;;26.92;71.87;100433.27;129993;1270;108774;-76
2022/08/24 14:35:46;;;;;;;24.40;7.20;;;;;;;26.96;71.97;100432.88;130094;1270;108912;-76
2022/08/24 14:39:12;;;;;;;20.50;6.90;;;;;;;26.96;71.31;100437.48;130333;1269;108748;-73
2022/08/24 14:42:23;;;;;;;23.70;6.50;;;;;;;26.95;71.35;100436.45;130267;1270;107430;-76